createdAt,value
2018-09-20T00:00:45.363Z,99.99
2018-09-20T00:01:45.399Z,99.99
2018-09-20T00:02:45.431Z,99.99
2018-09-20T00:03:45.466Z,99.99
2018-09-20T00:04:45.502Z,99.99
2018-09-20T00:05:45.536Z,99.99
2018-09-20T00:06:45.570Z,99.99
2018-09-20T00:07:45.604Z,99.99
2018-09-20T00:08:45.639Z,99.99
2018-09-20T00:09:45.673Z,99.99
2018-09-20T00:10:45.707Z,99.99
2018-09-20T00:11:45.742Z,99.99
2018-09-20T00:12:45.776Z,99.99
2018-09-20T00:13:45.815Z,99.99
2018-09-20T00:14:45.844Z,99.99
2018-09-20T00:15:45.879Z,99.99
2018-09-20T00:16:45.913Z,99.99
2018-09-20T00:17:45.949Z,99.99
2018-09-20T00:18:45.982Z,99.99
2018-09-20T00:19:46.020Z,99.99
2018-09-20T00:20:46.051Z,99.99
2018-09-20T00:21:46.085Z,99.99
2018-09-20T00:22:46.120Z,99.99
2018-09-20T00:23:46.157Z,99.99
2018-09-20T00:24:46.187Z,99.99
2018-09-20T00:25:46.224Z,99.99
2018-09-20T00:26:46.256Z,99.99
2018-09-20T00:27:46.293Z,99.99
2018-09-20T00:28:46.326Z,99.99
2018-09-20T00:29:46.363Z,99.99
2018-09-20T00:30:46.396Z,99.99
2018-09-20T00:31:46.427Z,99.99
2018-09-20T00:32:46.461Z,99.99
2018-09-20T00:33:46.497Z,99.99
2018-09-20T00:34:46.531Z,99.99
2018-09-20T00:35:46.565Z,99.99
2018-09-20T00:36:46.597Z,99.99
2018-09-20T00:37:46.633Z,99.99
2018-09-20T00:38:46.666Z,99.99
2018-09-20T00:39:46.700Z,99.99
2018-09-20T00:40:46.735Z,99.99
2018-09-20T00:41:46.769Z,99.99
2018-09-20T00:42:46.802Z,99.99
2018-09-20T00:43:46.837Z,99.99
2018-09-20T00:44:46.872Z,99.99
2018-09-20T00:45:46.906Z,99.99
2018-09-20T00:46:46.940Z,99.99
2018-09-20T00:47:46.974Z,99.99
2018-09-20T00:48:47.006Z,99.99
2018-09-20T00:49:47.043Z,99.99
2018-09-20T00:50:47.077Z,99.99
2018-09-20T00:51:47.111Z,99.99
2018-09-20T00:52:47.145Z,99.99
2018-09-20T00:53:47.180Z,99.99
2018-09-20T00:54:47.212Z,99.99
2018-09-20T00:55:47.247Z,99.99
2018-09-20T00:56:47.281Z,99.99
2018-09-20T00:57:47.315Z,99.99
2018-09-20T00:58:47.350Z,99.99
2018-09-20T00:59:47.383Z,99.99
2018-09-20T01:00:47.418Z,99.99
2018-09-20T01:01:47.452Z,99.99
2018-09-20T01:02:47.488Z,99.99
2018-09-20T01:03:47.522Z,99.99
2018-09-20T01:04:47.554Z,99.99
2018-09-20T01:05:47.588Z,99.99
2018-09-20T01:06:47.622Z,99.99
2018-09-20T01:07:47.656Z,99.99
2018-09-20T01:08:47.691Z,99.99
2018-09-20T01:10:47.758Z,99.99
2018-09-20T01:11:47.792Z,99.99
2018-09-20T01:12:47.826Z,99.99
2018-09-20T01:13:47.862Z,99.99
2018-09-20T01:14:47.899Z,99.99
2018-09-20T01:15:47.929Z,99.99
2018-09-20T01:16:47.962Z,99.99
2018-09-20T01:17:47.998Z,99.99
2018-09-20T01:18:48.031Z,99.99
2018-09-20T01:19:48.065Z,99.99
2018-09-20T01:20:48.100Z,99.99
2018-09-20T01:21:48.133Z,99.99
2018-09-20T01:22:48.167Z,99.99
2018-09-20T01:23:48.200Z,99.99
2018-09-20T01:24:48.235Z,99.99
2018-09-20T01:25:48.271Z,99.99
2018-09-20T01:26:48.302Z,99.99
2018-09-20T01:27:48.337Z,99.99
2018-09-20T01:28:48.370Z,99.99
2018-09-20T01:29:48.404Z,99.99
2018-09-20T01:30:48.438Z,99.99
2018-09-20T01:31:48.526Z,99.99
2018-09-20T01:32:48.508Z,99.99
2018-09-20T01:33:48.541Z,99.99
2018-09-20T01:34:48.573Z,99.99
2018-09-20T01:35:48.609Z,99.99
2018-09-20T01:36:48.642Z,99.99
2018-09-20T01:37:48.679Z,99.99
2018-09-20T01:40:48.778Z,99.99
2018-09-20T01:41:49.017Z,99.99
2018-09-20T01:43:48.880Z,99.99
2018-09-20T01:44:48.913Z,99.99
2018-09-20T01:45:48.947Z,99.99
2018-09-20T01:46:48.981Z,99.99
2018-09-20T01:47:49.014Z,99.99
2018-09-20T01:49:36.615Z,99.99
2018-09-20T01:50:36.644Z,99.99
2018-09-20T01:51:36.675Z,99.99
2018-09-20T01:52:36.714Z,99.99
2018-09-20T01:53:36.743Z,99.99
2018-09-20T01:54:36.779Z,99.99
2018-09-20T01:55:36.811Z,99.99
2018-09-20T01:56:36.858Z,99.99
2018-09-20T01:57:36.879Z,99.99
2018-09-20T01:58:36.925Z,99.99
2018-09-20T01:59:36.948Z,99.99
2018-09-20T02:00:36.981Z,99.99
2018-09-20T02:01:37.015Z,99.99
2018-09-20T02:02:37.051Z,99.99
2018-09-20T02:03:37.082Z,99.99
2018-09-20T02:04:37.116Z,99.99
2018-09-20T02:05:37.150Z,99.99
2018-09-20T02:06:37.184Z,99.99
2018-09-20T02:07:37.222Z,99.99
2018-09-20T02:08:37.251Z,99.99
2018-09-20T02:09:37.285Z,99.99
2018-09-20T02:10:37.320Z,99.99
2018-09-20T02:11:37.352Z,99.99
2018-09-20T02:12:37.387Z,99.99
2018-09-20T02:13:37.425Z,99.99
2018-09-20T02:14:37.458Z,99.99
2018-09-20T02:15:37.489Z,99.99
2018-09-20T02:16:37.525Z,99.99
2018-09-20T02:17:37.556Z,99.99
2018-09-20T02:18:37.594Z,99.99
2018-09-20T02:19:37.626Z,99.99
2018-09-20T02:20:37.656Z,99.99
2018-09-20T02:21:37.689Z,99.99
2018-09-20T02:22:37.725Z,99.99
2018-09-20T02:23:37.758Z,99.99
2018-09-20T02:24:37.792Z,99.99
2018-09-20T02:25:37.827Z,99.99
2018-09-20T02:26:37.860Z,99.99
2018-09-20T02:27:37.894Z,99.99
2018-09-20T02:28:37.927Z,99.99
2018-09-20T02:29:37.961Z,99.99
2018-09-20T02:30:37.996Z,99.99
2018-09-20T02:31:38.035Z,99.99
2018-09-20T02:32:38.062Z,99.99
2018-09-20T02:33:38.097Z,99.99
2018-09-20T02:34:38.129Z,99.99
2018-09-20T02:35:38.164Z,99.99
2018-09-20T02:36:38.198Z,99.99
2018-09-20T02:37:38.234Z,99.99
2018-09-20T02:38:38.264Z,99.99
2018-09-20T02:39:38.298Z,99.99
2018-09-20T02:40:38.333Z,99.99
2018-09-20T02:41:38.568Z,99.99
2018-09-20T02:42:38.400Z,99.99
2018-09-20T02:43:38.432Z,99.99
2018-09-20T02:44:38.466Z,99.99
2018-09-20T02:45:38.504Z,99.99
2018-09-20T02:46:38.534Z,99.99
2018-09-20T02:47:38.568Z,99.99
2018-09-20T02:48:38.603Z,99.99
2018-09-20T02:49:38.635Z,99.99
2018-09-20T02:50:38.671Z,99.99
2018-09-20T02:51:38.702Z,99.99
2018-09-20T02:52:38.737Z,99.99
2018-09-20T02:53:38.770Z,99.99
2018-09-20T02:54:38.805Z,99.99
2018-09-20T02:55:38.837Z,99.99
2018-09-20T02:56:38.874Z,99.99
2018-09-20T02:57:38.904Z,99.99
2018-09-20T02:58:38.938Z,99.99
2018-09-20T02:59:38.971Z,99.99
2018-09-20T03:00:39.005Z,99.99
2018-09-20T03:01:39.041Z,99.99
2018-09-20T03:02:39.073Z,99.99
2018-09-20T03:03:39.109Z,99.99
2018-09-20T03:04:39.140Z,99.99
2018-09-20T03:06:39.208Z,99.99
2018-09-20T03:09:39.308Z,99.99
2018-09-20T03:12:39.814Z,99.99
2018-09-20T03:13:40.643Z,99.99
2018-09-20T03:14:39.476Z,99.99
2018-09-20T03:15:40.010Z,99.99
2018-09-20T03:16:39.544Z,99.99
2018-09-20T03:17:39.780Z,99.99
2018-09-20T03:18:39.814Z,99.99
2018-09-20T03:19:39.846Z,99.99
2018-09-20T03:20:39.880Z,99.99
2018-09-20T03:21:39.913Z,99.99
2018-09-20T03:23:39.778Z,99.99
2018-09-20T03:24:39.813Z,99.99
2018-09-20T03:25:39.846Z,99.99
2018-09-20T03:26:39.882Z,99.99
2018-09-20T03:27:39.913Z,99.99
2018-09-20T03:29:40.183Z,99.99
2018-09-20T03:30:40.092Z,99.99
2018-09-20T03:31:40.249Z,99.99
2018-09-20T03:32:40.082Z,99.99
2018-09-20T03:36:40.215Z,99.99
2018-09-20T03:37:40.453Z,99.99
2018-09-20T03:39:41.518Z,99.99
2018-09-20T03:45:40.722Z,99.99
2018-09-20T03:47:40.587Z,99.99
2018-09-20T03:49:42.055Z,99.99
2018-09-20T03:50:40.686Z,99.99
2018-09-20T03:58:40.954Z,99.99
2018-09-20T04:05:23.703Z,99.99
2018-09-20T04:06:23.741Z,99.99
2018-09-20T04:07:23.772Z,99.99
2018-09-20T04:08:23.803Z,99.99
2018-09-20T04:09:23.837Z,99.99
2018-09-20T04:10:23.871Z,99.99
2018-09-20T04:11:23.904Z,99.99
2018-09-20T04:12:23.936Z,99.99
2018-09-20T04:13:23.971Z,99.99
2018-09-20T04:14:24.006Z,99.99
2018-09-20T04:15:24.039Z,99.99
2018-09-20T04:16:24.070Z,99.99
2018-09-20T04:17:24.104Z,99.99
2018-09-20T04:18:24.144Z,99.99
2018-09-20T04:19:24.172Z,99.99
2018-09-20T04:20:24.205Z,99.99
2018-09-20T04:21:24.239Z,99.99
2018-09-20T04:22:24.272Z,99.99
2018-09-20T04:23:24.306Z,99.99
2018-09-20T04:24:24.338Z,99.99
2018-09-20T04:25:27.197Z,99.99
2018-09-20T04:27:24.441Z,99.99
2018-09-20T04:28:24.472Z,99.99
2018-09-20T04:29:24.505Z,99.99
2018-09-20T04:30:24.539Z,99.99
2018-09-20T04:31:24.573Z,99.99
2018-09-20T04:32:24.605Z,99.99
2018-09-20T04:33:24.638Z,99.99
2018-09-20T04:34:24.672Z,99.99
2018-09-20T04:35:24.706Z,99.99
2018-09-20T04:36:24.738Z,99.99
2018-09-20T05:55:36.227Z,99.99
2018-09-20T05:58:36.524Z,99.99
2018-09-20T05:59:36.558Z,99.99
2018-09-20T06:01:36.826Z,99.99
2018-09-20T06:02:36.658Z,99.99
2018-09-20T06:03:36.488Z,99.99
2018-09-20T06:04:36.523Z,99.99
2018-09-20T06:05:36.580Z,99.99
2018-09-20T06:06:36.592Z,99.99
2018-09-20T06:07:36.624Z,99.99
2018-09-20T06:08:36.658Z,99.99
2018-09-20T06:09:36.692Z,99.99
2018-09-20T06:10:36.928Z,99.99
2018-09-20T06:11:36.760Z,99.99
2018-09-20T06:12:36.793Z,99.99
2018-09-20T06:13:36.828Z,99.99
2018-09-20T06:14:37.065Z,99.99
2018-09-20T06:16:36.943Z,99.99
2018-09-20T06:17:37.006Z,99.99
2018-09-20T06:18:36.995Z,99.99
2018-09-20T06:19:37.031Z,99.99
2018-09-20T06:20:37.065Z,99.99
2018-09-20T06:21:37.148Z,99.99
2018-09-20T06:22:37.133Z,99.99
2018-09-20T06:23:37.166Z,99.99
2018-09-20T06:24:37.201Z,99.99
2018-09-20T06:25:37.235Z,99.99
2018-09-20T06:26:37.267Z,99.99
2018-09-20T06:27:37.356Z,99.99
2018-09-20T06:28:37.336Z,99.99
2018-09-20T06:29:37.374Z,99.99
2018-09-20T06:30:37.403Z,99.99
2018-09-20T06:31:37.438Z,99.99
2018-09-20T06:32:37.473Z,99.99
2018-09-20T06:33:37.513Z,99.99
2018-09-20T06:34:37.540Z,99.99
2018-09-20T06:35:37.577Z,99.99
2018-09-20T06:36:37.609Z,99.99
2018-09-20T06:37:37.643Z,99.99
2018-09-20T06:38:37.679Z,99.99
2018-09-20T06:39:37.711Z,99.99
2018-09-20T06:40:37.748Z,99.99
2018-09-20T06:41:37.780Z,99.99
2018-09-20T06:42:37.813Z,99.99
2018-09-20T06:43:37.849Z,99.99
2018-09-20T06:44:37.883Z,99.99
2018-09-20T06:45:37.916Z,99.99
2018-09-20T06:46:37.954Z,99.99
2018-09-20T06:47:37.986Z,99.99
2018-09-20T06:48:38.019Z,99.99
2018-09-20T06:49:38.057Z,99.99
2018-09-20T06:50:38.086Z,99.99
2018-09-20T06:51:38.121Z,99.99
2018-09-20T06:52:38.155Z,99.99
2018-09-20T06:53:38.192Z,99.99
2018-09-20T06:54:38.224Z,99.99
2018-09-20T06:55:38.259Z,99.99
2018-09-20T06:56:38.383Z,99.99
2018-09-20T06:57:38.328Z,99.99
2018-09-20T06:58:38.361Z,99.99
2018-09-20T06:59:38.398Z,99.99
2018-09-20T07:00:38.432Z,99.99
2018-09-20T07:01:38.466Z,99.99
2018-09-20T07:02:38.500Z,99.99
2018-09-20T07:03:38.538Z,99.99
2018-09-20T07:04:38.570Z,99.99
2018-09-20T07:05:38.607Z,99.99
2018-09-20T07:06:38.639Z,99.99
2018-09-20T07:07:38.675Z,99.99
2018-09-20T07:08:38.707Z,99.99
2018-09-20T07:09:38.745Z,99.99
2018-09-20T07:10:38.780Z,99.99
2018-09-20T07:11:38.814Z,99.99
2018-09-20T07:12:38.848Z,99.99
2018-09-20T07:13:38.937Z,99.99
2018-09-20T07:14:38.917Z,99.99
2018-09-20T07:15:38.954Z,99.99
2018-09-20T07:16:38.989Z,99.99
2018-09-20T07:17:39.023Z,99.99
2018-09-20T07:18:39.058Z,99.99
2018-09-20T07:19:39.093Z,99.99
2018-09-20T07:20:39.129Z,99.99
2018-09-20T07:21:39.164Z,99.99
2018-09-20T07:22:39.244Z,99.99
2018-09-20T07:23:39.234Z,99.99
2018-09-20T07:24:39.270Z,99.99
2018-09-20T07:25:39.360Z,99.99
2018-09-20T07:26:39.340Z,99.99
2018-09-20T07:27:39.375Z,99.99
2018-09-20T07:28:39.413Z,99.99
2018-09-20T07:29:39.450Z,99.99
2018-09-20T07:30:39.484Z,99.99
2018-09-20T07:31:39.518Z,99.99
2018-09-20T07:32:39.625Z,99.99
2018-09-20T07:33:39.599Z,99.99
2018-09-20T07:34:39.625Z,99.99
2018-09-20T07:35:39.661Z,99.99
2018-09-20T07:36:39.698Z,99.99
2018-09-20T07:37:39.734Z,99.99
2018-09-20T07:38:39.769Z,99.99
2018-09-20T07:39:39.808Z,99.99
2018-09-20T07:40:39.843Z,99.99
2018-09-20T07:41:39.879Z,99.99
2018-09-20T07:42:39.921Z,99.99
2018-09-20T07:43:40.064Z,99.99
2018-09-20T07:44:39.987Z,99.99
2018-09-20T07:45:40.030Z,99.26
2018-09-20T07:46:40.060Z,98.58
2018-09-20T07:47:40.099Z,98.77
2018-09-20T07:48:40.137Z,99.21
2018-09-20T07:49:40.172Z,98.73
2018-09-20T07:50:40.207Z,97.96
2018-09-20T07:51:40.244Z,98.54
2018-09-20T07:52:40.283Z,97.86
2018-09-20T07:53:40.363Z,97.86
2018-09-20T07:54:40.355Z,98.10
2018-09-20T07:55:40.397Z,97.62
2018-09-20T07:56:40.436Z,98.39
2018-09-20T07:57:40.468Z,98.20
2018-09-20T07:58:40.527Z,97.62
2018-09-20T07:59:40.543Z,97.19
2018-09-20T08:00:40.579Z,96.41
2018-09-20T08:01:40.670Z,95.25
2018-09-20T08:02:40.656Z,95.64
2018-09-20T08:03:40.692Z,95.40
2018-09-20T08:04:40.731Z,93.76
2018-09-20T08:05:40.773Z,91.77
2018-09-20T08:06:40.805Z,90.81
2018-09-20T08:07:40.843Z,91.09
2018-09-20T08:08:40.884Z,90.27
2018-09-20T08:09:40.921Z,90.37
2018-09-20T08:10:40.956Z,89.79
2018-09-20T08:11:40.995Z,89.25
2018-09-20T08:12:41.033Z,88.87
2018-09-20T08:13:41.071Z,88.39
2018-09-20T08:14:41.109Z,87.99
2018-09-20T08:15:41.148Z,87.13
2018-09-20T08:16:41.188Z,86.88
2018-09-20T08:17:41.226Z,86.40
2018-09-20T08:18:41.263Z,86.01
2018-09-20T08:22:07.649Z,86.30
2018-09-20T08:23:07.239Z,85.86
2018-09-20T08:24:07.277Z,85.18
2018-09-20T08:25:07.315Z,85.37
2018-09-20T08:26:07.355Z,85.22
2018-09-20T08:27:07.393Z,85.31
2018-09-20T08:28:07.433Z,85.03
2018-09-20T08:29:07.472Z,84.93
2018-09-20T08:30:07.511Z,84.74
2018-09-20T08:31:07.551Z,84.74
2018-09-20T08:32:07.590Z,84.20
2018-09-20T08:33:07.629Z,83.62
2018-09-20T08:34:07.669Z,83.42
2018-09-20T08:35:07.710Z,83.03
2018-09-20T08:36:07.749Z,83.03
2018-09-20T08:37:07.851Z,81.91
2018-09-20T08:38:07.831Z,81.82
2018-09-20T08:39:07.870Z,81.47
2018-09-20T08:40:07.910Z,79.80
2018-09-20T08:41:07.948Z,77.55
2018-09-20T08:42:08.014Z,75.38
2018-09-20T08:43:08.028Z,72.09
2018-09-20T08:44:08.069Z,68.87
2018-09-20T08:45:08.109Z,66.27
2018-09-20T08:46:08.153Z,63.24
2018-09-20T08:47:08.192Z,60.10
2018-09-20T08:48:08.232Z,57.53
2018-09-20T08:49:08.273Z,55.99
2018-09-20T08:50:08.322Z,53.49
2018-09-20T08:51:08.429Z,52.33
2018-09-20T08:52:08.400Z,51.05
2018-09-20T08:53:08.441Z,49.85
2018-09-20T08:54:08.485Z,49.13
2018-09-20T08:55:08.529Z,49.23
2018-09-20T08:56:08.573Z,47.70
2018-09-20T08:57:08.648Z,46.26
2018-09-20T08:58:08.675Z,45.20
2018-09-20T08:59:08.717Z,44.56
2018-09-20T09:00:08.785Z,44.75
2018-09-20T09:01:08.803Z,44.46
2018-09-20T09:02:08.861Z,45.13
2018-09-20T09:03:08.898Z,44.81
2018-09-20T09:04:08.944Z,43.82
2018-09-20T09:05:08.980Z,42.58
2018-09-20T09:06:09.030Z,42.96
2018-09-20T09:07:09.073Z,41.83
2018-09-20T09:08:09.116Z,40.17
2018-09-20T09:09:09.172Z,39.71
2018-09-20T09:10:09.213Z,39.42
2018-09-20T09:11:11.887Z,39.51
2018-09-20T09:12:09.307Z,40.05
2018-09-20T09:13:09.358Z,40.47
2018-09-20T09:14:09.397Z,40.84
2018-09-20T09:15:09.496Z,39.89
2018-09-20T09:17:09.573Z,38.84
2018-09-20T09:18:09.588Z,39.61
2018-09-20T09:19:09.633Z,39.15
2018-09-20T09:20:09.725Z,38.98
2018-09-20T09:21:09.821Z,38.28
2018-09-20T09:22:14.870Z,39.09
2018-09-20T09:23:09.830Z,37.87
2018-09-20T09:24:09.877Z,39.63
2018-09-20T09:25:09.917Z,38.56
2018-09-20T09:26:09.974Z,39.67
2018-09-20T09:27:10.048Z,38.62
2018-09-20T09:28:10.068Z,38.46
2018-09-20T09:29:10.110Z,37.72
2018-09-20T09:30:10.158Z,38.18
2018-09-20T09:31:10.224Z,38.28
2018-09-20T09:32:10.265Z,38.10
2018-09-20T09:33:52.868Z,37.77
2018-09-20T09:34:52.935Z,37.79
2018-09-20T09:35:52.971Z,37.41
2018-09-20T09:36:53.024Z,37.69
2018-09-20T09:37:53.065Z,39.04
2018-09-20T09:38:53.123Z,38.84
2018-09-20T09:39:53.164Z,38.34
2018-09-20T09:40:53.213Z,38.07
2018-09-20T09:41:53.266Z,36.73
2018-09-20T09:42:53.312Z,36.63
2018-09-20T09:43:53.362Z,37.09
2018-09-20T09:44:53.417Z,37.60
2018-09-20T09:45:54.072Z,36.85
2018-09-20T09:46:53.515Z,36.04
2018-09-20T09:47:53.561Z,35.77
2018-09-20T09:48:53.612Z,36.27
2018-09-20T09:49:53.659Z,35.49
2018-09-20T09:50:53.723Z,34.91
2018-09-20T09:51:53.768Z,35.50
2018-09-20T09:53:41.388Z,34.13
2018-09-20T09:54:41.473Z,33.15
2018-09-20T09:55:41.526Z,33.25
2018-09-20T09:56:41.543Z,33.45
2018-09-20T09:57:41.594Z,33.15
2018-09-20T09:58:41.645Z,33.17
2018-09-20T09:59:41.714Z,32.87
2018-09-20T10:00:41.743Z,32.10
2018-09-20T10:01:41.800Z,32.65
2018-09-20T10:02:41.990Z,32.35
2018-09-20T10:03:41.899Z,32.45
2018-09-20T10:04:41.949Z,32.24
2018-09-20T10:05:42.005Z,32.62
2018-09-20T10:06:42.058Z,34.27
2018-09-20T10:07:42.103Z,36.05
2018-09-20T10:08:42.155Z,36.68
2018-09-20T10:09:42.207Z,37.81
2018-09-20T10:10:42.264Z,38.57
2018-09-20T10:11:44.933Z,36.36
2018-09-20T10:12:42.366Z,34.64
2018-09-20T10:13:42.471Z,35.32
2018-09-20T10:14:42.462Z,35.50
2018-09-20T10:15:42.517Z,34.64
2018-09-20T10:16:42.570Z,35.14
2018-09-20T10:17:44.041Z,35.42
2018-09-20T10:18:42.676Z,33.62
2018-09-20T10:19:42.727Z,32.56
2018-09-20T10:20:42.780Z,33.04
2018-09-20T10:21:42.827Z,32.26
2018-09-20T10:22:42.917Z,31.49
2018-09-20T10:23:42.941Z,31.01
2018-09-20T10:24:42.991Z,30.75
2018-09-20T10:25:43.044Z,30.15
2018-09-20T10:26:43.145Z,29.68
2018-09-20T10:27:43.141Z,29.10
2018-09-20T10:28:43.195Z,29.08
2018-09-20T10:29:43.252Z,28.50
2018-09-20T10:30:43.305Z,28.62
2018-09-20T10:31:43.360Z,29.05
2018-09-20T10:32:43.424Z,29.27
2018-09-20T10:33:43.468Z,29.22
2018-09-20T10:34:43.515Z,29.68
2018-09-20T10:35:43.572Z,30.14
2018-09-20T10:36:43.620Z,30.11
2018-09-20T10:37:43.682Z,30.21
2018-09-20T10:38:43.730Z,31.09
2018-09-20T10:39:43.782Z,30.52
2018-09-20T10:40:43.840Z,31.09
2018-09-20T10:41:43.891Z,29.94
2018-09-20T10:42:43.937Z,29.25
2018-09-20T10:43:43.993Z,31.27
2018-09-20T10:44:44.053Z,30.91
2018-09-20T10:45:44.105Z,31.93
2018-09-20T10:46:44.156Z,33.48
2018-09-20T10:47:44.210Z,35.47
2018-09-20T10:48:44.258Z,35.37
2018-09-20T10:49:44.316Z,35.01
2018-09-20T10:50:44.366Z,34.33
2018-09-20T10:51:44.425Z,35.22
2018-09-20T10:52:44.783Z,33.07
2018-09-20T10:53:44.527Z,32.32
2018-09-20T10:54:44.701Z,31.67
2018-09-20T10:55:44.634Z,30.91
2018-09-20T10:56:44.694Z,31.64
2018-09-20T10:57:44.729Z,30.91
2018-09-20T10:58:44.797Z,30.94
2018-09-20T10:59:44.855Z,31.48
2018-09-20T11:00:44.906Z,30.42
2018-09-20T11:01:44.958Z,29.46
2018-09-20T11:02:45.056Z,29.01
2018-09-20T11:03:45.081Z,29.05
2018-09-20T11:04:45.119Z,29.35
2018-09-20T11:05:45.383Z,29.18
2018-09-20T11:06:45.216Z,28.01
2018-09-20T11:07:45.269Z,28.01
2018-09-20T11:08:45.323Z,29.21
2018-09-20T11:09:45.378Z,29.03
2018-09-20T11:10:45.432Z,30.99
2018-09-20T11:11:45.490Z,29.54
2018-09-20T11:12:45.540Z,29.15
2018-09-20T11:13:45.596Z,29.05
2018-09-20T11:14:48.272Z,30.52
2018-09-20T11:15:45.703Z,29.35
2018-09-20T11:16:45.758Z,30.82
2018-09-20T11:17:45.814Z,29.46
2018-09-20T11:18:45.867Z,28.97
2018-09-20T11:19:45.960Z,28.11
2018-09-20T11:20:45.975Z,28.69
2018-09-20T11:21:46.029Z,28.11
2018-09-20T11:22:46.086Z,28.11
2018-09-20T11:23:46.139Z,27.98
2018-09-20T11:24:46.193Z,29.39
2018-09-20T11:25:46.714Z,30.44
2018-09-20T11:26:46.304Z,28.14
2018-09-20T11:27:46.358Z,28.74
2018-09-20T11:28:46.415Z,27.64
2018-09-20T11:31:46.804Z,27.29
2018-09-20T11:32:46.860Z,28.53
2018-09-20T11:33:46.689Z,27.95
2018-09-20T11:34:46.766Z,28.08
2018-09-20T11:35:47.020Z,27.11
2018-09-20T11:36:46.876Z,26.73
2018-09-20T11:38:46.963Z,27.00
2018-09-20T11:39:47.240Z,27.29
2018-09-20T11:42:47.205Z,27.58
2018-09-20T11:43:47.256Z,26.61
2018-09-20T11:45:47.344Z,26.79
2018-09-20T11:46:47.469Z,26.97
2018-09-20T11:47:47.654Z,27.17
2018-09-20T11:48:47.507Z,27.67
2018-09-20T11:49:47.967Z,27.07
2018-09-20T11:50:47.642Z,27.55
2018-09-20T11:51:47.899Z,29.08
2018-09-20T11:53:47.781Z,29.44
2018-09-20T11:54:48.039Z,28.81
2018-09-20T11:56:47.946Z,27.34
2018-09-20T11:57:48.028Z,26.39
2018-09-20T11:58:48.056Z,25.42
2018-09-20T11:59:48.110Z,24.76
2018-09-20T12:00:48.166Z,25.53
2018-09-20T12:02:48.301Z,26.47
2018-09-20T12:04:30.898Z,25.96
2018-09-20T12:05:30.957Z,26.28
2018-09-20T12:06:31.009Z,25.61
2018-09-20T12:07:31.062Z,25.09
2018-09-20T12:08:31.118Z,26.01
2018-09-20T12:09:31.174Z,25.11
2018-09-20T12:10:31.230Z,25.78
2018-09-20T12:11:31.286Z,25.02
2018-09-20T12:12:31.340Z,25.04
2018-09-20T12:13:31.421Z,23.93
2018-09-20T12:14:31.468Z,23.44
2018-09-20T12:15:31.508Z,23.44
2018-09-20T12:16:31.562Z,23.64
2018-09-20T12:17:31.618Z,25.02
2018-09-20T12:18:31.690Z,25.86
2018-09-20T12:19:31.729Z,27.34
2018-09-20T12:20:31.785Z,26.72
2018-09-20T12:21:31.842Z,26.45
2018-09-20T12:22:31.897Z,24.87
2018-09-20T12:23:31.952Z,24.91
2018-09-20T12:24:32.007Z,24.42
2018-09-20T12:25:32.064Z,23.43
2018-09-20T12:26:32.118Z,22.66
2018-09-20T12:27:32.173Z,22.67
2018-09-20T12:28:32.229Z,22.21
2018-09-20T12:29:32.284Z,21.53
2018-09-20T12:30:32.340Z,21.39
2018-09-20T12:31:32.453Z,21.45
2018-09-20T12:32:32.451Z,22.54
2018-09-20T12:33:32.507Z,22.62
2018-09-20T12:34:32.563Z,23.50
2018-09-20T12:35:32.742Z,23.49
2018-09-20T12:36:32.674Z,25.54
2018-09-20T12:37:32.730Z,24.27
2018-09-20T12:38:32.787Z,23.60
2018-09-20T12:39:32.839Z,23.69
2018-09-20T12:40:35.354Z,23.99
2018-09-20T12:41:32.952Z,24.30
2018-09-20T12:42:33.011Z,23.25
2018-09-20T12:43:33.065Z,21.88
2018-09-20T12:44:33.120Z,21.58
2018-09-20T12:45:33.176Z,22.06
2018-09-20T12:46:33.233Z,22.85
2018-09-20T12:47:33.286Z,23.22
2018-09-20T12:48:33.344Z,22.39
2018-09-20T12:49:33.398Z,23.99
2018-09-20T12:50:33.456Z,23.99
2018-09-20T12:51:33.509Z,23.18
2018-09-20T12:52:33.565Z,24.74
2018-09-20T12:53:33.621Z,24.19
2018-09-20T12:54:33.701Z,22.80
2018-09-20T12:55:33.735Z,24.11
2018-09-20T12:56:33.790Z,24.37
2018-09-20T12:57:33.844Z,23.75
2018-09-20T12:58:33.902Z,25.02
2018-09-20T12:59:33.956Z,24.75
2018-09-20T13:00:34.060Z,25.05
2018-09-20T13:01:34.066Z,23.88
2018-09-20T13:02:34.124Z,22.50
2018-09-20T13:03:34.177Z,23.19
2018-09-20T13:04:34.233Z,23.21
2018-09-20T13:05:34.291Z,22.55
2018-09-20T13:06:34.369Z,21.94
2018-09-20T13:07:34.413Z,21.62
2018-09-20T13:08:34.471Z,23.00
2018-09-20T13:09:34.527Z,22.56
2018-09-20T13:10:34.595Z,22.19
2018-09-20T13:11:34.638Z,22.67
2018-09-20T13:12:34.695Z,22.55
2018-09-20T13:13:34.757Z,23.41
2018-09-20T13:14:34.804Z,24.48
2018-09-20T13:15:34.857Z,25.98
2018-09-20T13:16:34.907Z,25.48
2018-09-20T13:17:34.969Z,24.44
2018-09-20T13:18:35.025Z,23.58
2018-09-20T13:19:35.073Z,22.31
2018-09-20T13:20:35.127Z,21.44
2018-09-20T13:21:35.187Z,20.75
2018-09-20T13:22:35.236Z,20.67
2018-09-20T13:23:35.302Z,20.29
2018-09-20T13:24:35.349Z,20.10
2018-09-20T13:25:35.479Z,19.38
2018-09-20T13:26:35.461Z,22.22
2018-09-20T13:27:35.515Z,21.55
2018-09-20T13:28:35.571Z,21.92
2018-09-20T13:29:35.619Z,22.69
2018-09-20T13:30:36.888Z,21.51
2018-09-20T13:31:35.758Z,21.41
2018-09-20T13:32:39.419Z,21.88
2018-09-20T13:33:35.850Z,22.08
2018-09-20T13:34:35.943Z,22.39
2018-09-20T13:35:35.955Z,21.59
2018-09-20T13:36:36.008Z,21.23
2018-09-20T13:37:36.061Z,21.23
2018-09-20T13:38:36.118Z,20.75
2018-09-20T13:39:36.169Z,21.37
2018-09-20T13:41:18.797Z,19.80
2018-09-20T13:42:18.847Z,19.51
2018-09-20T13:43:18.930Z,18.62
2018-09-20T13:44:18.962Z,18.92
2018-09-20T13:45:19.013Z,19.64
2018-09-20T13:46:19.074Z,20.14
2018-09-20T13:47:19.129Z,18.73
2018-09-20T13:48:19.184Z,22.30
2018-09-20T13:49:19.237Z,22.29
2018-09-20T13:50:19.293Z,20.75
2018-09-20T13:51:19.365Z,21.50
2018-09-20T13:52:19.409Z,21.42
2018-09-20T13:53:19.462Z,21.84
2018-09-20T13:54:19.516Z,20.67
2018-09-20T13:55:19.574Z,20.07
2018-09-20T13:56:19.659Z,20.18
2018-09-20T13:57:19.684Z,20.07
2018-09-20T13:58:19.881Z,20.45
2018-09-20T13:59:19.795Z,21.62
2018-09-20T14:00:19.850Z,22.81
2018-09-20T14:01:19.898Z,22.22
2018-09-20T14:02:19.964Z,22.83
2018-09-20T14:03:20.007Z,24.44
2018-09-20T14:04:20.064Z,23.86
2018-09-20T14:05:20.121Z,22.61
2018-09-20T14:06:20.175Z,22.50
2018-09-20T14:07:20.234Z,22.11
2018-09-20T14:08:20.286Z,22.13
2018-09-20T14:09:20.346Z,22.03
2018-09-20T14:10:20.396Z,21.51
2018-09-20T14:11:20.459Z,21.42
2018-09-20T14:12:20.512Z,22.72
2018-09-20T14:13:20.570Z,21.73
2018-09-20T14:14:20.621Z,21.11
2018-09-20T14:15:20.693Z,22.80
2018-09-20T14:16:20.729Z,22.49
2018-09-20T14:17:20.788Z,22.31
2018-09-20T14:18:20.835Z,21.53
2018-09-20T14:19:20.900Z,22.34
2018-09-20T14:20:20.951Z,21.84
2018-09-20T14:21:21.003Z,22.64
2018-09-20T14:22:21.053Z,21.11
2018-09-20T14:23:21.112Z,21.41
2018-09-20T14:24:21.234Z,21.42
2018-09-20T14:25:21.223Z,22.58
2018-09-20T14:26:21.274Z,22.50
2018-09-20T14:27:21.347Z,23.28
2018-09-20T14:28:21.384Z,24.10
2018-09-20T14:29:21.439Z,23.93
2018-09-20T14:30:21.492Z,24.62
2018-09-20T14:31:21.551Z,25.77
2018-09-20T14:32:21.598Z,27.66
2018-09-20T14:33:21.660Z,28.47
2018-09-20T14:34:21.717Z,27.69
2018-09-20T14:35:21.777Z,25.02
2018-09-20T14:36:21.821Z,26.70
2018-09-20T14:37:21.874Z,26.14
2018-09-20T14:38:21.945Z,25.99
2018-09-20T14:39:21.988Z,27.40
2018-09-20T14:40:22.066Z,26.99
2018-09-20T14:41:22.092Z,26.35
2018-09-20T14:42:22.151Z,28.52
2018-09-20T14:43:22.212Z,28.80
2018-09-20T14:44:22.260Z,27.36
2018-09-20T14:45:22.320Z,25.98
2018-09-20T14:46:22.372Z,26.43
2018-09-20T14:47:22.421Z,26.15
2018-09-20T14:48:22.475Z,26.39
2018-09-20T14:49:22.536Z,26.01
2018-09-20T14:50:22.584Z,27.83
2018-09-20T14:51:22.638Z,28.06
2018-09-20T14:52:22.699Z,27.36
2018-09-20T14:53:22.754Z,27.29
2018-09-20T14:54:22.789Z,25.12
2018-09-20T14:55:22.863Z,24.84
2018-09-20T14:56:22.915Z,24.54
2018-09-20T14:57:22.972Z,23.84
2018-09-20T14:58:23.023Z,23.35
2018-09-20T14:59:23.074Z,25.26
2018-09-20T15:00:23.134Z,25.35
2018-09-20T15:01:23.187Z,24.76
2018-09-20T15:02:23.306Z,25.73
2018-09-20T15:03:23.295Z,25.62
2018-09-20T15:04:23.354Z,25.22
2018-09-20T15:05:23.385Z,27.28
2018-09-20T15:06:23.442Z,26.79
2018-09-20T15:07:23.493Z,25.11